Time;durP1;ratioP1;P1;durP2;ratioP2;P2;SDS_P1;SDS_P2;PMS_P1;PMS_P2;Temp;Humidity;BMP_temperature;BMP_pressure;BME280_temperature;BME280_humidity;BME280_pressure;Samples;Min_cycle;Max_cycle;Signal;HPM_P1;HPM_P2
2022/07/15 00:02:24;;;;;;;4.80;2.50;;;16.50;99.90;;;;;;5003640;28;20429;-73
2022/07/15 00:04:52;;;;;;;3.47;2.40;;;16.50;99.90;;;;;;4999387;28;20422;-73
2022/07/15 00:07:20;;;;;;;4.10;2.60;;;16.40;99.90;;;;;;4996567;28;20767;-73
2022/07/15 00:12:30;;;;;;;3.30;2.80;;;16.30;99.90;;;;;;5014494;28;20424;-73
2022/07/15 00:14:58;;;;;;;3.20;2.70;;;16.30;99.90;;;;;;5005736;28;20490;-73
2022/07/15 00:17:25;;;;;;;2.97;2.47;;;16.30;99.90;;;;;;5000440;28;20849;-73
2022/07/15 00:19:54;;;;;;;3.17;2.53;;;16.30;99.90;;;;;;5000720;28;22053;-73
2022/07/15 00:22:21;;;;;;;5.30;2.63;;;16.20;99.90;;;;;;5003983;28;20458;-73
2022/07/15 00:24:47;;;;;;;6.60;2.77;;;16.20;99.90;;;;;;4993514;28;20934;-73
2022/07/15 00:27:14;;;;;;;6.27;2.97;;;16.20;99.90;;;;;;5001952;28;20474;-73
2022/07/15 00:29:41;;;;;;;4.77;2.80;;;16.10;99.90;;;;;;5009546;28;20450;-73
2022/07/15 00:32:07;;;;;;;6.20;2.63;;;16.10;99.90;;;;;;4997037;28;20485;-73
2022/07/15 00:34:34;;;;;;;3.90;2.73;;;16.00;99.90;;;;;;4996688;28;20537;-73
2022/07/15 00:37:02;;;;;;;5.10;2.43;;;16.00;99.90;;;;;;5005116;28;20524;-73
2022/07/15 00:39:29;;;;;;;7.10;2.80;;;16.00;99.90;;;;;;4996548;28;20944;-73
2022/07/15 00:41:56;;;;;;;4.80;2.20;;;15.90;99.90;;;;;;4997782;28;20956;-73
2022/07/15 00:44:23;;;;;;;3.87;2.60;;;15.90;99.90;;;;;;5007390;28;20866;-73
2022/07/15 00:46:50;;;;;;;3.77;2.77;;;15.90;99.90;;;;;;4997292;28;20554;-73
2022/07/15 00:49:17;;;;;;;6.37;2.77;;;15.80;99.90;;;;;;5011094;28;20803;-73
2022/07/15 00:51:46;;;;;;;9.10;3.00;;;15.80;99.90;;;;;;5003993;28;20480;-73
2022/07/15 00:54:16;;;;;;;4.03;2.63;;;15.80;99.90;;;;;;4997367;28;20488;-73
2022/07/15 00:56:47;;;;;;;3.43;2.93;;;15.70;99.90;;;;;;4996941;28;21014;-73
2022/07/15 00:59:16;;;;;;;3.13;2.83;;;15.70;99.90;;;;;;4999443;28;20954;-73
2022/07/15 01:01:43;;;;;;;2.50;2.30;;;15.70;99.90;;;;;;5003574;28;20458;-73
2022/07/15 01:04:13;;;;;;;5.60;2.40;;;15.80;99.90;;;;;;4999427;28;20517;-73
2022/07/15 01:06:40;;;;;;;4.07;2.77;;;15.80;99.90;;;;;;5003378;28;20479;-73
2022/07/15 01:09:07;;;;;;;6.73;2.70;;;15.70;99.90;;;;;;4994435;28;20454;-73
2022/07/15 01:11:36;;;;;;;4.90;3.50;;;15.60;99.90;;;;;;4995713;28;20476;-73
2022/07/15 01:14:03;;;;;;;3.90;2.60;;;15.60;99.90;;;;;;4994718;28;20546;-73
2022/07/15 01:16:30;;;;;;;2.60;2.40;;;15.60;99.90;;;;;;5002324;28;20449;-73
2022/07/15 01:18:57;;;;;;;3.33;3.03;;;15.50;99.90;;;;;;5001136;28;20487;-73
2022/07/15 01:21:25;;;;;;;7.27;3.57;;;15.50;99.90;;;;;;4996129;28;20455;-73
2022/07/15 01:23:52;;;;;;;4.57;2.70;;;15.40;99.90;;;;;;4997356;28;20518;-73
2022/07/15 01:26:19;;;;;;;4.83;2.33;;;15.30;99.90;;;;;;4995132;28;20490;-73
2022/07/15 01:28:45;;;;;;;3.10;2.90;;;15.30;99.90;;;;;;5001580;28;20425;-73
2022/07/15 01:31:12;;;;;;;5.40;3.07;;;15.30;99.90;;;;;;5004222;28;20424;-73
2022/07/15 01:33:39;;;;;;;4.73;2.90;;;15.20;99.90;;;;;;5001094;28;20511;-73
2022/07/15 01:36:07;;;;;;;2.70;2.50;;;15.10;99.90;;;;;;4989383;28;20473;-73
2022/07/15 01:38:35;;;;;;;5.23;3.30;;;15.10;99.90;;;;;;4995484;28;20454;-73
2022/07/15 01:41:02;;;;;;;5.57;3.13;;;15.00;99.90;;;;;;4995025;28;21098;-73
2022/07/15 01:43:28;;;;;;;3.40;3.10;;;14.90;99.90;;;;;;5000924;28;20477;-73
2022/07/15 01:45:55;;;;;;;8.50;3.20;;;14.80;99.90;;;;;;4995275;28;20467;-73
2022/07/15 01:51:06;;;;;;;5.37;3.23;;;14.60;99.90;;;;;;5002957;28;20839;-73
2022/07/15 01:53:34;;;;;;;7.57;2.93;;;14.50;99.90;;;;;;4995430;28;20833;-73
2022/07/15 01:56:01;;;;;;;6.80;3.60;;;14.40;99.90;;;;;;5000434;28;20516;-73
2022/07/15 01:58:27;;;;;;;6.37;3.00;;;14.30;99.90;;;;;;5000452;28;20466;-73
2022/07/15 02:00:54;;;;;;;5.27;3.60;;;14.20;99.90;;;;;;4998507;28;20433;-73
2022/07/15 02:03:21;;;;;;;3.60;3.30;;;14.20;99.90;;;;;;4997081;28;21027;-73
2022/07/15 02:05:48;;;;;;;3.07;2.87;;;14.20;99.90;;;;;;4996545;28;20471;-73
2022/07/15 02:08:14;;;;;;;6.23;3.03;;;14.30;99.90;;;;;;4997542;28;20885;-73
2022/07/15 02:10:42;;;;;;;6.63;3.00;;;14.30;99.90;;;;;;5000560;28;20527;-73
2022/07/15 02:13:11;;;;;;;15.70;3.30;;;14.30;99.90;;;;;;4992390;28;20952;-73
2022/07/15 02:15:38;;;;;;;4.90;3.30;;;14.30;99.90;;;;;;4996044;28;20537;-73
2022/07/15 02:18:05;;;;;;;3.43;3.13;;;14.30;99.90;;;;;;5003005;28;20484;-73
2022/07/15 02:20:32;;;;;;;5.73;3.50;;;14.30;99.90;;;;;;5002791;28;20513;-73
2022/07/15 02:23:01;;;;;;;10.13;3.20;;;14.30;99.90;;;;;;4996283;28;20952;-73
2022/07/15 02:25:29;;;;;;;18.13;3.00;;;14.20;99.90;;;;;;5005332;28;20561;-73
2022/07/15 02:27:59;;;;;;;5.70;3.30;;;14.20;99.90;;;;;;5002847;28;20451;-73
2022/07/15 02:30:27;;;;;;;3.43;3.00;;;14.20;99.90;;;;;;4997934;28;20446;-73
2022/07/15 02:32:53;;;;;;;4.93;3.30;;;14.20;99.90;;;;;;4996887;28;22203;-73
2022/07/15 02:35:20;;;;;;;11.00;2.93;;;14.30;99.90;;;;;;5003587;28;20486;-72
2022/07/15 02:37:47;;;;;;;4.03;2.83;;;14.30;99.90;;;;;;5006595;28;20454;-73
2022/07/15 02:40:14;;;;;;;3.53;2.73;;;14.30;99.90;;;;;;5003979;28;20458;-73
2022/07/15 02:42:40;;;;;;;3.37;3.07;;;14.30;99.90;;;;;;4999355;28;20451;-72
2022/07/15 02:45:09;;;;;;;4.00;2.90;;;14.30;99.90;;;;;;4994226;28;20504;-73
2022/07/15 02:47:36;;;;;;;3.40;2.60;;;14.40;99.90;;;;;;4995272;28;20522;-73
2022/07/15 02:50:02;;;;;;;3.13;2.50;;;14.40;99.90;;;;;;5001130;28;20425;-73
2022/07/15 02:52:29;;;;;;;2.77;2.53;;;14.50;99.90;;;;;;4995024;28;20450;-73
2022/07/15 02:54:56;;;;;;;4.80;3.30;;;14.50;99.90;;;;;;4995062;28;21075;-73
2022/07/15 02:57:22;;;;;;;3.27;2.97;;;14.50;99.90;;;;;;5003672;28;20474;-73
2022/07/15 02:59:49;;;;;;;5.83;3.20;;;14.60;99.90;;;;;;5006657;28;20533;-73
2022/07/15 03:02:17;;;;;;;3.47;2.60;;;14.60;99.90;;;;;;4998279;28;20426;-73
2022/07/15 03:04:44;;;;;;;4.70;2.60;;;14.50;99.90;;;;;;5000790;28;20974;-73
2022/07/15 03:07:11;;;;;;;4.50;2.70;;;14.60;99.90;;;;;;5000822;28;20506;-73
2022/07/15 03:09:37;;;;;;;5.10;2.67;;;14.70;99.90;;;;;;5002526;28;20422;-73
2022/07/15 03:12:04;;;;;;;2.77;2.57;;;14.80;99.90;;;;;;4995348;28;20477;-73
2022/07/15 03:14:31;;;;;;;3.10;2.80;;;14.80;99.90;;;;;;5007124;28;20532;-73
2022/07/15 03:16:58;;;;;;;3.80;2.70;;;14.80;99.90;;;;;;5001863;28;20471;-73
2022/07/15 03:19:26;;;;;;;3.73;2.93;;;14.80;99.90;;;;;;5002388;28;20455;-73
2022/07/15 03:21:52;;;;;;;2.73;2.50;;;14.80;99.90;;;;;;4995229;28;20451;-73
2022/07/15 03:24:19;;;;;;;9.37;3.00;;;14.80;99.90;;;;;;5003465;28;20504;-73
2022/07/15 03:26:46;;;;;;;3.40;2.50;;;14.80;99.90;;;;;;5006295;28;20532;-73
2022/07/15 03:29:15;;;;;;;3.60;2.83;;;14.70;99.90;;;;;;5004210;28;20451;-73
2022/07/15 03:31:42;;;;;;;2.60;2.40;;;14.70;99.90;;;;;;4996010;28;20456;-73
2022/07/15 03:34:09;;;;;;;4.73;2.73;;;14.70;99.90;;;;;;4988169;28;20475;-73
2022/07/15 03:36:38;;;;;;;2.93;2.70;;;14.70;99.90;;;;;;5004445;28;20478;-73
2022/07/15 03:39:05;;;;;;;3.53;2.53;;;14.70;99.90;;;;;;5004536;28;21013;-73
2022/07/15 03:41:32;;;;;;;3.03;2.77;;;14.70;99.90;;;;;;4997476;28;20944;-73
2022/07/15 03:43:59;;;;;;;3.10;2.73;;;14.70;99.90;;;;;;4994222;28;20925;-73
2022/07/15 03:46:25;;;;;;;4.60;3.10;;;14.70;99.90;;;;;;4993789;28;20471;-73
2022/07/15 03:48:52;;;;;;;5.80;3.53;;;14.70;99.90;;;;;;4993268;28;20893;-73
2022/07/15 03:51:19;;;;;;;6.30;2.83;;;14.70;99.90;;;;;;4991474;28;20459;-73
2022/07/15 03:53:47;;;;;;;4.93;3.30;;;14.70;99.90;;;;;;4994513;28;20967;-73
2022/07/15 03:56:13;;;;;;;3.50;3.20;;;14.80;99.90;;;;;;5003073;28;20461;-73
2022/07/15 03:58:40;;;;;;;7.40;3.10;;;14.80;99.90;;;;;;4994744;28;20458;-73
2022/07/15 04:01:07;;;;;;;6.20;2.70;;;14.80;99.90;;;;;;5005817;28;20490;-73
2022/07/15 04:03:34;;;;;;;6.03;3.57;;;14.80;99.90;;;;;;5002015;28;20449;-73
2022/07/15 04:06:00;;;;;;;4.00;2.70;;;14.80;99.90;;;;;;4997021;28;20454;-73
2022/07/15 04:08:27;;;;;;;4.03;2.93;;;14.80;99.90;;;;;;5010409;28;20500;-73
2022/07/15 04:10:57;;;;;;;5.20;3.03;;;14.80;99.90;;;;;;4998549;28;20451;-73
2022/07/15 04:13:23;;;;;;;6.27;3.20;;;14.80;99.90;;;;;;5006591;28;20458;-73
2022/07/15 04:15:51;;;;;;;3.33;2.77;;;14.80;99.90;;;;;;5006590;28;20490;-73
2022/07/15 04:18:17;;;;;;;5.93;3.17;;;14.90;99.90;;;;;;4995738;28;20510;-73
2022/07/15 04:20:44;;;;;;;4.20;2.70;;;14.90;99.90;;;;;;4997041;28;21199;-73
2022/07/15 04:23:11;;;;;;;4.67;2.80;;;14.90;99.90;;;;;;4997117;28;20467;-73
2022/07/15 04:25:37;;;;;;;9.70;3.07;;;14.90;99.90;;;;;;4995708;28;20482;-73
2022/07/15 04:28:05;;;;;;;3.80;2.90;;;14.90;99.90;;;;;;5010977;28;20458;-73
2022/07/15 04:30:32;;;;;;;6.07;3.57;;;15.00;99.90;;;;;;5009472;28;20533;-73
2022/07/15 04:32:59;;;;;;;10.17;3.00;;;15.00;99.90;;;;;;4999858;28;20458;-73
2022/07/15 04:35:26;;;;;;;6.43;2.60;;;15.00;99.90;;;;;;5003831;28;21081;-73
2022/07/15 04:37:52;;;;;;;2.97;2.70;;;15.00;99.90;;;;;;4997212;28;20463;-73
2022/07/15 04:40:19;;;;;;;2.97;2.63;;;15.00;99.90;;;;;;4996548;28;20448;-73
2022/07/15 04:42:46;;;;;;;3.87;2.37;;;15.10;99.90;;;;;;4994056;28;20451;-74
2022/07/15 04:45:14;;;;;;;3.00;2.30;;;15.20;99.90;;;;;;4994378;28;20447;-73
2022/07/15 04:47:40;;;;;;;3.00;2.20;;;15.30;99.90;;;;;;4993305;28;20459;-72
2022/07/15 04:52:52;;;;;;;5.07;2.63;;;15.60;99.90;;;;;;4994516;28;20447;-73
2022/07/15 04:55:19;;;;;;;3.47;2.37;;;15.90;99.90;;;;;;4994363;28;20518;-73
2022/07/15 04:57:46;;;;;;;2.80;2.50;;;16.20;99.90;;;;;;4994103;28;20498;-73
2022/07/15 05:00:14;;;;;;;2.47;2.17;;;16.50;99.90;;;;;;4994573;28;20454;-73
2022/07/15 05:02:41;;;;;;;3.13;2.60;;;16.80;99.90;;;;;;4994308;28;20480;-73
2022/07/15 05:05:07;;;;;;;2.60;2.40;;;17.00;99.90;;;;;;4992037;28;20862;-73
2022/07/15 05:07:34;;;;;;;4.50;2.77;;;17.20;99.90;;;;;;4993279;28;20438;-73
2022/07/15 05:10:01;;;;;;;4.00;2.27;;;17.40;99.90;;;;;;4995272;28;20430;-73
2022/07/15 05:12:27;;;;;;;5.43;2.57;;;17.40;99.90;;;;;;5002214;28;20456;-73
2022/07/15 05:14:55;;;;;;;3.97;2.50;;;17.40;99.90;;;;;;5001430;28;21034;-73
2022/07/15 05:17:24;;;;;;;10.07;2.60;;;17.40;99.90;;;;;;4994286;28;20454;-73
2022/07/15 05:19:52;;;;;;;3.73;2.40;;;17.50;99.90;;;;;;4996672;28;20955;-73
2022/07/15 05:22:18;;;;;;;8.43;2.30;;;17.60;99.90;;;;;;4999348;28;20454;-73
2022/07/15 05:24:45;;;;;;;4.73;2.77;;;17.70;99.90;;;;;;4999743;28;20475;-72
2022/07/15 05:27:12;;;;;;;5.20;2.73;;;17.80;99.90;;;;;;5001458;28;20518;-73
2022/07/15 05:29:39;;;;;;;18.90;2.70;;;17.80;99.90;;;;;;5004564;28;20483;-72
2022/07/15 05:32:06;;;;;;;4.33;2.67;;;17.80;99.90;;;;;;4994449;28;20581;-73
2022/07/15 05:34:34;;;;;;;6.10;2.83;;;17.90;99.90;;;;;;4998021;28;20459;-71
2022/07/15 05:37:01;;;;;;;4.70;2.63;;;18.00;99.90;;;;;;5007092;28;20972;-72
2022/07/15 05:39:28;;;;;;;3.63;2.47;;;18.00;99.90;;;;;;5000015;28;20451;-72
2022/07/15 05:41:54;;;;;;;5.03;3.00;;;17.90;99.90;;;;;;4995135;28;20452;-71
2022/07/15 05:44:21;;;;;;;4.10;2.37;;;17.90;99.90;;;;;;4987977;28;20421;-71
2022/07/15 05:46:48;;;;;;;8.27;2.63;;;17.90;99.90;;;;;;4996041;28;20463;-71
2022/07/15 05:49:14;;;;;;;6.23;2.73;;;17.90;99.90;;;;;;4994362;28;20938;-71
2022/07/15 05:51:42;;;;;;;10.27;3.23;;;17.90;99.90;;;;;;4994942;28;20426;-71
2022/07/15 05:54:13;;;;;;;6.50;2.60;;;17.80;99.90;;;;;;4994685;28;20429;-71
2022/07/15 05:56:39;;;;;;;8.17;2.80;;;17.90;99.90;;;;;;4992757;28;20489;-71
2022/07/15 05:59:06;;;;;;;5.70;2.53;;;18.00;99.90;;;;;;4997598;28;20432;-71
2022/07/15 06:01:33;;;;;;;7.47;2.50;;;18.10;99.90;;;;;;5003621;28;20431;-71
2022/07/15 06:03:59;;;;;;;11.00;3.83;;;18.10;99.90;;;;;;4999719;28;20451;-71
2022/07/15 06:06:26;;;;;;;7.97;2.50;;;18.10;99.90;;;;;;4993716;28;21032;-71
2022/07/15 06:08:54;;;;;;;6.33;2.53;;;18.10;99.90;;;;;;4994868;28;20468;-71
2022/07/15 06:11:21;;;;;;;6.33;2.77;;;18.10;99.90;;;;;;4993396;28;20472;-71
2022/07/15 06:13:47;;;;;;;16.63;2.90;;;18.10;99.90;;;;;;4994868;28;20434;-71
2022/07/15 06:16:15;;;;;;;10.30;3.10;;;18.10;99.90;;;;;;4996314;28;20457;-71
2022/07/15 06:18:42;;;;;;;9.17;3.07;;;18.10;99.90;;;;;;5009193;28;20429;-71
2022/07/15 06:21:08;;;;;;;6.70;3.10;;;18.10;99.90;;;;;;4994303;28;20461;-72
2022/07/15 06:23:35;;;;;;;7.03;2.60;;;18.20;99.90;;;;;;4994420;28;20430;-72
2022/07/15 06:26:03;;;;;;;8.10;2.27;;;18.40;99.90;;;;;;4993094;28;20453;-71
2022/07/15 06:28:30;;;;;;;6.87;3.00;;;18.60;99.90;;;;;;4993391;28;20426;-71
2022/07/15 06:30:56;;;;;;;4.70;2.60;;;18.80;99.90;;;;;;4996477;28;20429;-72
2022/07/15 06:33:24;;;;;;;3.80;2.47;;;18.80;99.90;;;;;;5002394;28;20509;-72
2022/07/15 06:35:50;;;;;;;3.67;2.43;;;18.80;99.90;;;;;;4995810;28;20812;-72
2022/07/15 06:38:17;;;;;;;4.10;2.17;;;18.90;99.90;;;;;;4994257;28;20425;-72
2022/07/15 06:40:44;;;;;;;2.90;2.33;;;19.00;99.90;;;;;;4994257;28;20426;-72
2022/07/15 06:43:12;;;;;;;5.93;2.70;;;19.10;99.90;;;;;;4992928;28;20455;-71
2022/07/15 06:45:38;;;;;;;6.20;2.70;;;19.20;99.90;;;;;;4995749;28;20561;-72
2022/07/15 06:48:06;;;;;;;4.17;2.90;;;19.20;99.90;;;;;;4997949;28;20451;-72
2022/07/15 06:50:33;;;;;;;2.43;2.20;;;19.30;99.90;;;;;;4994564;28;20451;-72
2022/07/15 06:53:00;;;;;;;5.87;2.47;;;19.30;99.90;;;;;;5001718;28;20450;-72
2022/07/15 06:55:26;;;;;;;4.90;2.40;;;19.40;99.90;;;;;;4993349;28;20545;-72
2022/07/15 06:57:54;;;;;;;4.70;2.90;;;19.40;99.90;;;;;;4997908;28;20953;-72
2022/07/15 07:00:22;;;;;;;6.27;2.90;;;19.50;99.90;;;;;;4989843;28;20506;-72
2022/07/15 07:02:49;;;;;;;6.70;2.80;;;19.60;99.90;;;;;;4994231;28;20462;-72
2022/07/15 07:05:15;;;;;;;5.57;3.20;;;19.70;99.90;;;;;;4990409;28;20971;-72
2022/07/15 07:07:42;;;;;;;2.87;2.47;;;19.80;99.90;;;;;;4989731;28;20455;-72
2022/07/15 07:10:09;;;;;;;5.97;3.10;;;19.90;99.90;;;;;;4984268;28;20517;-73
2022/07/15 07:12:36;;;;;;;6.20;3.30;;;20.00;99.90;;;;;;4986010;28;20946;-73
2022/07/15 07:15:05;;;;;;;3.20;2.80;;;20.00;99.90;;;;;;4985934;28;20572;-73
2022/07/15 07:17:34;;;;;;;4.07;2.50;;;20.10;99.90;;;;;;4987155;28;20459;-72
2022/07/15 07:20:00;;;;;;;5.83;3.23;;;20.30;99.90;;;;;;4986696;28;20462;-73
2022/07/15 07:22:27;;;;;;;8.10;2.93;;;20.40;99.90;;;;;;4986548;28;20505;-72
2022/07/15 07:24:53;;;;;;;3.80;2.73;;;20.40;99.90;;;;;;4982955;28;20854;-72
2022/07/15 07:27:20;;;;;;;3.07;2.87;;;20.60;99.90;;;;;;4986683;28;20470;-71
2022/07/15 07:29:47;;;;;;;7.47;2.93;;;20.80;99.90;;;;;;4987586;28;20463;-72
2022/07/15 07:32:13;;;;;;;8.00;3.30;;;20.80;99.90;;;;;;4986933;28;20533;-72
2022/07/15 07:34:41;;;;;;;5.00;3.17;;;20.60;99.90;;;;;;4986030;28;21066;-72
2022/07/15 07:37:08;;;;;;;8.90;3.40;;;20.40;99.90;;;;;;4988560;28;20520;-72
2022/07/15 07:39:34;;;;;;;8.83;3.17;;;20.60;99.90;;;;;;4991664;28;20472;-72
2022/07/15 07:42:01;;;;;;;14.37;3.30;;;20.90;99.90;;;;;;4988077;28;20425;-72
2022/07/15 07:44:28;;;;;;;5.40;2.80;;;21.40;99.90;;;;;;4990053;28;20451;-73
2022/07/15 07:46:54;;;;;;;8.40;4.23;;;21.60;99.90;;;;;;4989993;28;20467;-73
2022/07/15 07:49:21;;;;;;;7.53;2.90;;;21.90;99.90;;;;;;4990884;28;20893;-73
2022/07/15 07:51:49;;;;;;;6.27;3.27;;;22.10;99.90;;;;;;4991965;28;20449;-72
2022/07/15 07:54:17;;;;;;;5.43;2.90;;;21.80;99.90;;;;;;4990346;28;20451;-72
2022/07/15 07:56:45;;;;;;;3.57;2.47;;;21.60;99.90;;;;;;4991440;28;20511;-72
2022/07/15 07:59:11;;;;;;;5.40;2.97;;;21.80;99.90;;;;;;4991054;28;20486;-72
2022/07/15 08:01:38;;;;;;;7.03;3.30;;;21.90;99.90;;;;;;4989702;28;20863;-72
2022/07/15 08:04:05;;;;;;;9.53;3.23;;;22.20;99.90;;;;;;4990289;28;22040;-72
2022/07/15 08:06:34;;;;;;;5.87;2.80;;;22.40;99.90;;;;;;4990636;28;20465;-72
2022/07/15 08:09:02;;;;;;;6.43;2.57;;;22.30;99.90;;;;;;4990120;28;20467;-72
2022/07/15 08:11:28;;;;;;;5.33;2.53;;;22.50;99.90;;;;;;4989770;28;20471;-72
2022/07/15 08:13:55;;;;;;;2.93;2.63;;;22.70;99.90;;;;;;4988701;28;20866;-72
2022/07/15 08:16:22;;;;;;;4.90;3.10;;;22.60;99.90;;;;;;4990294;28;20487;-72
2022/07/15 08:18:48;;;;;;;5.63;2.60;;;22.40;99.90;;;;;;4990150;28;20454;-72
2022/07/15 08:21:15;;;;;;;3.17;2.60;;;22.20;99.90;;;;;;4990562;28;20517;-72
2022/07/15 08:23:42;;;;;;;7.33;2.87;;;22.20;99.90;;;;;;4991178;28;20454;-71
2022/07/15 08:26:13;;;;;;;4.10;2.67;;;22.20;99.90;;;;;;4990873;28;20529;-71
2022/07/15 08:28:40;;;;;;;3.40;2.57;;;22.10;99.90;;;;;;4989515;28;20510;-72
2022/07/15 08:31:07;;;;;;;7.53;2.83;;;22.20;99.90;;;;;;4992405;28;20530;-74
2022/07/15 08:33:34;;;;;;;7.13;2.67;;;22.40;99.90;;;;;;4991212;28;20463;-73
2022/07/15 08:36:01;;;;;;;7.70;2.50;;;22.40;99.90;;;;;;4988127;28;20475;-72
2022/07/15 08:38:27;;;;;;;4.80;3.00;;;22.50;99.90;;;;;;4989888;28;20455;-71
2022/07/15 08:40:57;;;;;;;10.00;3.30;;;22.60;99.90;;;;;;4989505;28;20557;-72
2022/07/15 08:43:25;;;;;;;4.03;2.50;;;22.60;99.90;;;;;;4989103;28;20455;-71
2022/07/15 08:45:52;;;;;;;4.70;2.90;;;22.70;99.90;;;;;;4990276;28;21297;-72
2022/07/15 08:48:24;;;;;;;5.17;2.90;;;23.10;99.90;;;;;;4989788;28;20574;-72
2022/07/15 08:50:51;;;;;;;4.10;2.77;;;23.10;99.90;;;;;;4988523;28;20455;-73
2022/07/15 08:53:18;;;;;;;8.00;2.97;;;22.90;99.90;;;;;;4988962;28;20538;-72
2022/07/15 08:55:47;;;;;;;3.30;2.30;;;22.90;99.90;;;;;;4988149;28;20490;-71
2022/07/15 08:58:14;;;;;;;5.80;2.90;;;23.00;99.90;;;;;;5008103;28;20544;-72
2022/07/15 09:00:42;;;;;;;3.10;2.60;;;23.20;99.90;;;;;;5008843;28;20446;-72
2022/07/15 09:03:10;;;;;;;9.53;2.83;;;23.30;99.90;;;;;;5010012;28;20881;-73
2022/07/15 09:05:37;;;;;;;4.70;2.80;;;23.30;99.90;;;;;;5008607;28;20469;-73
2022/07/15 09:08:08;;;;;;;9.20;2.60;;;23.40;99.90;;;;;;5008690;28;20454;-73
2022/07/15 09:10:44;;;;;;;3.60;3.00;;;23.70;99.90;;;;;;5007770;28;20508;-72
2022/07/15 09:13:12;;;;;;;4.07;2.77;;;23.60;99.90;;;;;;5008270;28;20470;-73
2022/07/15 09:15:42;;;;;;;3.33;3.10;;;23.40;99.90;;;;;;5007345;28;20505;-72
2022/07/15 09:18:14;;;;;;;3.97;3.40;;;23.00;99.90;;;;;;5008557;28;20447;-72
2022/07/15 09:20:43;;;;;;;5.17;3.43;;;22.80;99.90;;;;;;5009505;28;20450;-72
2022/07/15 09:23:11;;;;;;;9.90;3.73;;;23.10;99.90;;;;;;5009150;28;20454;-72
2022/07/15 09:25:39;;;;;;;4.00;3.00;;;23.30;99.90;;;;;;5009512;28;20547;-72
2022/07/15 09:28:08;;;;;;;6.90;3.40;;;23.50;99.90;;;;;;5009849;28;20505;-72
2022/07/15 09:33:35;;;;;;;6.80;3.73;;;23.60;99.90;;;;;;5009187;28;20977;-72
2022/07/15 09:36:07;;;;;;;6.70;2.90;;;22.90;99.90;;;;;;5009453;28;20490;-72
2022/07/15 09:38:40;;;;;;;4.10;3.50;;;22.80;99.90;;;;;;5009444;28;20504;-72
2022/07/15 09:41:07;;;;;;;5.90;3.47;;;23.00;99.90;;;;;;5009648;28;20458;-72
2022/07/15 09:43:44;;;;;;;6.73;3.47;;;23.20;99.90;;;;;;5009691;28;20454;-72
2022/07/15 09:46:10;;;;;;;3.87;3.50;;;23.50;99.90;;;;;;5008049;28;21072;-72
2022/07/15 09:48:42;;;;;;;3.50;3.20;;;23.80;99.90;;;;;;5009808;28;20520;-72
2022/07/15 09:51:09;;;;;;;9.83;3.47;;;23.80;99.90;;;;;;5008923;28;20454;-72
2022/07/15 09:53:37;;;;;;;3.57;3.17;;;23.30;99.90;;;;;;5008814;28;20476;-73
2022/07/15 09:56:04;;;;;;;4.23;3.00;;;23.00;99.90;;;;;;5009007;28;20478;-73
2022/07/15 09:58:32;;;;;;;6.30;3.03;;;22.60;99.90;;;;;;5008283;28;20446;-73
2022/07/15 10:00:59;;;;;;;6.17;3.70;;;22.30;99.90;;;;;;5008532;28;20458;-72
2022/07/15 10:03:26;;;;;;;4.73;3.43;;;22.00;99.90;;;;;;5008885;28;20463;-72
2022/07/15 10:05:55;;;;;;;12.33;3.27;;;21.80;99.90;;;;;;5007803;28;21119;-72
2022/07/15 10:08:22;;;;;;;8.97;3.67;;;21.60;99.90;;;;;;5008997;28;20447;-72
2022/07/15 10:10:51;;;;;;;6.80;3.30;;;21.60;99.90;;;;;;5009026;28;20450;-72
2022/07/15 10:13:36;;;;;;;5.93;3.03;;;21.50;99.90;;;;;;5008308;28;20536;-72
2022/07/15 10:16:17;;;;;;;6.63;3.70;;;21.50;99.90;;;;;;5008660;28;20472;-72
2022/07/15 10:19:00;;;;;;;7.10;3.27;;;21.50;99.90;;;;;;5008495;28;20509;-71
2022/07/15 10:21:37;;;;;;;4.37;3.20;;;21.70;99.90;;;;;;5007875;28;21031;-71
2022/07/15 10:24:26;;;;;;;4.70;3.23;;;21.90;99.90;;;;;;5008879;28;20450;-71
2022/07/15 10:27:08;;;;;;;6.73;3.70;;;22.10;99.90;;;;;;5007751;28;21052;-71
2022/07/15 10:29:35;;;;;;;5.87;3.50;;;22.40;99.90;;;;;;5006233;28;20458;-72
2022/07/15 10:32:03;;;;;;;7.17;3.23;;;22.90;99.90;;;;;;5005229;28;20505;-72
2022/07/15 10:34:32;;;;;;;5.63;3.00;;;23.10;99.90;;;;;;5007424;28;21037;-71
2022/07/15 10:37:06;;;;;;;5.17;3.70;;;23.10;99.90;;;;;;5006433;28;20486;-71
2022/07/15 10:39:57;;;;;;;6.00;3.10;;;22.90;99.90;;;;;;5006889;28;20449;-71
2022/07/15 10:42:24;;;;;;;5.90;3.10;;;23.00;99.90;;;;;;5007611;28;20551;-71
2022/07/15 10:45:09;;;;;;;6.90;2.60;;;23.40;99.70;;;;;;5007341;28;20827;-71
2022/07/15 10:47:36;;;;;;;2.87;2.63;;;24.00;99.10;;;;;;5005454;28;20612;-71
2022/07/15 10:50:39;;;;;;;4.63;2.87;;;24.20;98.20;;;;;;5006089;28;20461;-71
2022/07/15 10:53:21;;;;;;;5.77;2.93;;;24.50;98.60;;;;;;5004865;28;20464;-71
2022/07/15 10:55:48;;;;;;;7.50;2.70;;;24.80;98.50;;;;;;5004246;28;20953;-70
2022/07/15 10:58:17;;;;;;;6.83;2.80;;;24.80;97.90;;;;;;5003184;28;20493;-72
2022/07/15 11:00:44;;;;;;;2.90;2.23;;;24.80;96.90;;;;;;5006161;28;20454;-72
2022/07/15 11:03:14;;;;;;;2.53;1.97;;;24.80;95.70;;;;;;5003600;28;20459;-74
2022/07/15 11:06:05;;;;;;;5.30;2.60;;;24.80;95.60;;;;;;5006772;28;20506;-73
2022/07/15 11:08:50;;;;;;;5.67;2.33;;;25.00;96.40;;;;;;5007624;28;20454;-73
2022/07/15 11:11:48;;;;;;;3.37;2.00;;;25.10;96.00;;;;;;5006314;28;20443;-72
2022/07/15 11:14:47;;;;;;;4.72;2.00;;;25.30;95.40;;;;;;4945285;28;20481;-73
2022/07/15 11:17:16;;;;;;;4.23;2.03;;;25.30;94.50;;;;;;5005045;28;20277;-73
2022/07/15 11:19:43;;;;;;;5.33;2.10;;;24.90;94.50;;;;;;5008209;28;20451;-74
2022/07/15 11:22:11;;;;;;;3.40;1.77;;;24.90;94.60;;;;;;5007079;28;20548;-73
2022/07/15 11:24:38;;;;;;;3.30;2.07;;;25.10;94.80;;;;;;5005578;28;20520;-73
2022/07/15 11:27:05;;;;;;;5.33;1.80;;;25.60;94.20;;;;;;5007632;28;20900;-74
2022/07/15 11:29:42;;;;;;;3.13;2.20;;;25.80;93.80;;;;;;5006767;28;20514;-73
2022/07/15 11:32:09;;;;;;;5.23;2.37;;;26.00;92.90;;;;;;5006042;28;20912;-73
2022/07/15 11:34:39;;;;;;;6.77;2.10;;;25.90;93.00;;;;;;5007427;28;20517;-73
2022/07/15 11:37:06;;;;;;;9.87;2.10;;;25.80;93.40;;;;;;5007239;28;20868;-73
2022/07/15 11:39:34;;;;;;;2.43;2.03;;;25.80;92.80;;;;;;5005413;28;21123;-73
2022/07/15 11:44:49;;;;;;;3.40;1.97;;;26.10;93.30;;;;;;5005709;28;20808;-73
2022/07/15 11:47:16;;;;;;;4.50;2.30;;;26.60;93.50;;;;;;5005904;28;20855;-72
2022/07/15 11:49:43;;;;;;;4.23;1.90;;;26.90;91.80;;;;;;5005785;28;20458;-75
2022/07/15 11:52:12;;;;;;;3.20;2.07;;;26.90;91.10;;;;;;5006767;28;20470;-74
2022/07/15 11:54:41;;;;;;;3.00;1.80;;;26.50;90.80;;;;;;5005709;28;20574;-74
2022/07/15 11:57:10;;;;;;;10.43;3.33;;;26.20;90.90;;;;;;5004926;28;20497;-72
2022/07/15 11:59:37;;;;;;;2.73;1.80;;;26.40;91.80;;;;;;5007171;28;20454;-74
2022/07/15 12:02:06;;;;;;;3.00;1.73;;;26.30;90.30;;;;;;5005834;28;20550;-71
2022/07/15 12:04:33;;;;;;;255.77;96.90;;;26.00;90.90;;;;;;5005228;28;21002;-72
2022/07/15 12:07:00;;;;;;;55.20;16.03;;;25.80;90.70;;;;;;5006588;28;20540;-72
2022/07/15 12:09:27;;;;;;;5.73;3.87;;;25.50;90.00;;;;;;5005656;28;20459;-73
2022/07/15 12:12:02;;;;;;;4.65;2.95;;;25.00;90.70;;;;;;5004733;28;20572;-72
2022/07/15 12:14:28;;;;;;;9.60;2.80;;;24.60;91.00;;;;;;5005787;28;20226;-70
2022/07/15 12:16:56;;;;;;;6.53;3.20;;;24.30;91.10;;;;;;5006089;28;20497;-72
2022/07/15 12:19:26;;;;;;;5.00;2.90;;;24.50;91.70;;;;;;5006723;28;20462;-73
2022/07/15 12:21:54;;;;;;;225.30;168.97;;;24.90;92.30;;;;;;5007032;28;20450;-74
2022/07/15 12:24:23;;;;;;;4.10;2.60;;;25.30;91.60;;;;;;5008599;28;20541;-72
2022/07/15 12:26:58;;;;;;;3.20;1.80;;;25.90;91.40;;;;;;5009097;28;20607;-73
2022/07/15 12:29:28;;;;;;;4.70;2.63;;;26.20;91.00;;;;;;5010460;28;20869;-71
2022/07/15 12:31:56;;;;;;;3.90;2.10;;;26.40;89.80;;;;;;5009580;28;20943;-72
2022/07/15 12:34:44;;;;;;;2.13;1.93;;;26.60;88.90;;;;;;5025315;28;20552;-72
2022/07/15 12:37:12;;;;;;;2.17;1.60;;;26.20;88.80;;;;;;5017194;28;20610;-71
2022/07/15 12:39:54;;;;;;;7.30;2.40;;;25.80;89.90;;;;;;5025577;28;20508;-71
2022/07/15 12:42:20;;;;;;;14.47;3.20;;;25.50;90.20;;;;;;5014631;28;20438;-75
2022/07/15 12:45:05;;;;;;;6.00;1.60;;;25.20;90.00;;;;;;5014769;28;20517;-73
2022/07/15 12:47:31;;;;;;;2.47;1.60;;;25.10;90.90;;;;;;5011359;28;20258;-73
2022/07/15 12:50:00;;;;;;;3.60;1.80;;;25.70;90.70;;;;;;5016272;28;20446;-73
2022/07/15 12:52:34;;;;;;;4.40;1.83;;;26.50;89.00;;;;;;5013231;28;20880;-74
2022/07/15 12:55:13;;;;;;;6.10;2.20;;;26.90;86.60;;;;;;5012290;28;20450;-74
2022/07/15 12:57:40;;;;;;;5.93;2.23;;;26.80;87.40;;;;;;4994251;28;20573;-73
2022/07/15 13:00:11;;;;;;;4.40;1.97;;;26.50;86.80;;;;;;4993297;28;21245;-73
2022/07/15 13:03:00;;;;;;;3.83;2.03;;;26.10;86.60;;;;;;4996244;28;20470;-73
2022/07/15 13:05:28;;;;;;;2.33;1.83;;;26.00;87.20;;;;;;5013510;28;20532;-73
2022/07/15 13:07:56;;;;;;;6.00;2.40;;;26.20;85.00;;;;;;5014010;28;20454;-73